createdAt,value
2023-02-07T00:01:38.846Z,202.13
2023-02-07T00:04:32.770Z,196.40
2023-02-07T00:07:33.346Z,202.37
2023-02-07T00:10:46.559Z,204.20
2023-02-07T00:13:27.747Z,207.53
2023-02-07T00:16:29.795Z,225.47
2023-02-07T00:19:34.709Z,240.00
2023-02-07T00:26:39.944Z,251.07
2023-02-07T00:30:00.738Z,265.93
2023-02-07T00:32:28.833Z,256.73
2023-02-07T00:34:53.042Z,246.50
2023-02-07T00:37:40.553Z,256.30
2023-02-07T00:40:20.568Z,236.10
2023-02-07T00:42:49.814Z,248.23
2023-02-07T00:45:29.410Z,256.70
2023-02-07T00:51:25.452Z,249.27
2023-02-07T01:04:05.821Z,211.07
2023-02-07T01:07:06.408Z,196.50
2023-02-07T01:10:29.774Z,186.53
2023-02-07T01:13:04.896Z,200.53
2023-02-07T01:19:22.040Z,177.17
2023-02-07T01:20:05.264Z,195.90
2023-02-07T01:21:59.092Z,173.40
2023-02-07T01:25:40.963Z,172.33
2023-02-07T01:27:50.585Z,155.45
2023-02-07T01:33:14.487Z,164.00
2023-02-07T01:35:51.261Z,162.73
2023-02-07T01:38:52.518Z,175.33
2023-02-07T01:44:31.741Z,157.77
2023-02-07T01:47:16.284Z,159.07
2023-02-07T01:50:12.772Z,143.67
2023-02-07T01:52:51.727Z,162.17
2023-02-07T01:55:54.735Z,157.77
2023-02-07T01:58:57.425Z,152.60
2023-02-07T02:01:28.872Z,156.77
2023-02-07T02:04:24.666Z,153.33
2023-02-07T02:07:34.289Z,146.13
2023-02-07T02:10:24.773Z,144.27
2023-02-07T02:13:30.540Z,136.45
2023-02-07T02:16:52.692Z,147.03
2023-02-07T02:20:11.287Z,139.40
2023-02-07T02:26:10.354Z,140.77
2023-02-07T02:29:11.462Z,146.50
2023-02-07T02:32:22.166Z,138.13
2023-02-07T02:35:09.127Z,135.65
2023-02-07T02:38:08.100Z,126.70
2023-02-07T02:41:28.990Z,123.73
2023-02-07T02:47:18.694Z,125.90
2023-02-07T02:50:54.298Z,128.37
2023-02-07T02:53:31.017Z,119.53
2023-02-07T02:57:00.357Z,132.43
2023-02-07T03:06:17.971Z,130.90
2023-02-07T03:09:16.168Z,123.87
2023-02-07T03:12:17.860Z,126.93
2023-02-07T03:15:02.953Z,116.53
2023-02-07T03:18:32.464Z,111.03
2023-02-07T03:21:20.785Z,113.60
2023-02-07T03:23:55.220Z,108.33
2023-02-07T03:43:51.200Z,106.50
2023-02-07T03:46:38.069Z,105.30
2023-02-07T03:57:14.744Z,108.70
2023-02-07T03:59:01.152Z,111.23
2023-02-07T04:04:57.026Z,105.60
2023-02-07T04:07:24.882Z,112.33
2023-02-07T04:09:51.712Z,103.47
2023-02-07T04:12:18.551Z,110.37
2023-02-07T04:14:45.297Z,109.43
2023-02-07T04:17:12.036Z,100.23
2023-02-07T06:02:13.145Z,101.97
2023-02-07T06:04:39.930Z,112.40
2023-02-07T06:07:07.852Z,106.40
2023-02-07T06:09:35.853Z,110.20
2023-02-07T06:12:05.229Z,110.27
2023-02-07T06:14:32.115Z,112.10
2023-02-07T06:16:59.038Z,111.30
2023-02-07T06:19:25.745Z,106.67
2023-02-07T06:21:52.470Z,109.40
2023-02-07T06:24:19.365Z,109.77
2023-02-07T06:26:46.809Z,115.87
2023-02-07T06:29:14.358Z,109.67
2023-02-07T06:31:41.085Z,105.27
2023-02-07T06:34:07.928Z,119.70
2023-02-07T06:36:34.689Z,121.83
2023-02-07T06:39:01.563Z,114.83
2023-02-07T06:41:28.286Z,108.33
2023-02-07T06:43:55.019Z,126.28
2023-02-07T06:46:21.842Z,127.20
2023-02-07T06:48:48.553Z,119.87
2023-02-07T06:51:15.349Z,124.63
2023-02-07T06:53:42.082Z,122.47
2023-02-07T06:56:08.827Z,125.00
2023-02-07T06:58:35.610Z,117.53
2023-02-07T07:01:03.028Z,107.83
2023-02-07T07:03:29.859Z,115.60
2023-02-07T07:05:57.563Z,123.23
2023-02-07T07:08:25.153Z,127.30
2023-02-07T07:10:52.002Z,115.93
2023-02-07T07:13:18.925Z,118.57
2023-02-07T07:15:45.632Z,119.13
2023-02-07T07:18:12.598Z,107.90
2023-02-07T07:20:39.314Z,113.63
2023-02-07T07:23:06.026Z,122.60
2023-02-07T07:25:32.743Z,111.27
2023-02-07T07:27:59.539Z,110.82
2023-02-07T07:30:26.723Z,119.13
2023-02-07T07:32:53.421Z,103.50
2023-02-07T07:35:20.557Z,116.53
2023-02-07T07:37:47.284Z,111.07
2023-02-07T07:40:14.183Z,112.67
2023-02-07T07:42:41.198Z,113.77
2023-02-07T07:45:08.335Z,115.50
2023-02-07T07:47:35.111Z,111.20
2023-02-07T07:50:01.806Z,122.03
2023-02-07T07:52:28.497Z,108.10
2023-02-07T07:54:55.206Z,111.13
2023-02-07T07:57:22.170Z,117.10
2023-02-07T07:59:48.879Z,119.68
2023-02-07T08:02:15.644Z,114.70
2023-02-07T08:04:42.546Z,112.70
2023-02-07T08:07:09.303Z,117.25
2023-02-07T08:09:36.045Z,103.20
2023-02-07T08:12:02.946Z,118.97
2023-02-07T08:14:29.776Z,120.22
2023-02-07T08:16:56.449Z,115.60
2023-02-07T08:19:23.525Z,108.65
2023-02-07T08:21:50.653Z,121.38
2023-02-07T08:24:17.364Z,116.38
2023-02-07T08:26:44.139Z,112.07
2023-02-07T08:29:11.507Z,117.22
2023-02-07T08:31:38.658Z,110.60
2023-02-07T08:34:05.935Z,116.53
2023-02-07T08:36:32.698Z,111.60
2023-02-07T08:38:59.694Z,104.95
2023-02-07T08:41:26.442Z,104.75
2023-02-07T08:43:53.103Z,104.47
2023-02-07T08:46:19.949Z,98.95
2023-02-07T08:48:46.647Z,100.55
2023-02-07T08:51:13.510Z,99.50
2023-02-07T08:53:40.197Z,101.03
2023-02-07T08:56:08.736Z,95.85
2023-02-07T08:58:35.583Z,99.45
2023-02-07T09:01:02.418Z,95.50
2023-02-07T09:03:29.183Z,90.22
2023-02-07T09:05:59.830Z,106.50
2023-02-07T09:10:53.389Z,99.45
2023-02-07T09:13:20.121Z,101.70
2023-02-07T09:15:52.555Z,104.80
2023-02-07T09:18:19.241Z,99.50
2023-02-07T09:20:45.949Z,94.47
2023-02-07T09:23:19.364Z,96.68
2023-02-07T09:25:48.078Z,91.85
2023-02-07T09:28:15.300Z,83.78
2023-02-07T09:30:43.399Z,94.25
2023-02-07T09:33:11.723Z,82.93
2023-02-07T09:35:40.085Z,84.32
2023-02-07T09:38:09.595Z,81.75
2023-02-07T09:40:36.904Z,83.85
2023-02-07T09:43:36.493Z,78.15
2023-02-07T09:46:20.970Z,71.38
2023-02-07T09:48:55.372Z,62.30
2023-02-07T09:51:23.807Z,60.78
2023-02-07T09:53:59.758Z,55.75
2023-02-07T09:56:29.577Z,55.67
2023-02-07T09:59:26.320Z,59.53
2023-02-07T10:02:01.247Z,51.17
2023-02-07T10:04:36.836Z,63.35
2023-02-07T10:07:07.493Z,52.15
2023-02-07T10:12:25.540Z,51.30
2023-02-07T10:15:14.069Z,46.63
2023-02-07T10:18:01.991Z,52.17
2023-02-07T10:20:40.041Z,49.42
2023-02-07T10:23:14.907Z,57.60
2023-02-07T10:25:41.610Z,62.03
2023-02-07T10:28:14.458Z,56.65
2023-02-07T10:30:57.429Z,51.10
2023-02-07T10:33:34.212Z,58.75
2023-02-07T10:36:04.601Z,52.47
2023-02-07T10:38:41.948Z,49.35
2023-02-07T10:41:31.528Z,48.70
2023-02-07T10:43:58.323Z,52.20
2023-02-07T10:46:25.270Z,51.83
2023-02-07T10:52:31.841Z,56.40
2023-02-07T10:56:32.599Z,55.20
2023-02-07T10:59:50.840Z,57.38
2023-02-07T11:03:13.660Z,54.30
2023-02-07T11:14:12.016Z,48.30
2023-02-07T11:17:31.027Z,58.13
2023-02-07T11:20:21.913Z,59.90
2023-02-07T11:26:41.867Z,41.88
2023-02-07T11:36:19.831Z,42.22
2023-02-07T11:39:28.012Z,36.50
2023-02-07T11:43:10.407Z,37.83
2023-02-07T11:46:41.583Z,36.47
2023-02-07T11:49:54.684Z,32.70
2023-02-07T11:52:58.401Z,42.85
2023-02-07T12:12:08.173Z,41.97
2023-02-07T12:27:25.690Z,32.50
2023-02-07T12:38:04.175Z,30.30
2023-02-07T12:45:09.254Z,28.50
2023-02-07T12:48:41.478Z,28.88
2023-02-07T12:55:36.754Z,31.95
2023-02-07T13:02:03.674Z,33.17
2023-02-07T13:12:07.768Z,36.20
2023-02-07T13:25:04.005Z,38.65
2023-02-07T13:28:52.301Z,41.40
2023-02-07T13:32:12.786Z,38.53
2023-02-07T13:38:13.280Z,38.72
2023-02-07T13:41:54.931Z,39.70
2023-02-07T13:49:04.221Z,39.67
2023-02-07T13:51:48.700Z,40.42
2023-02-07T13:54:52.128Z,39.00
2023-02-07T14:06:00.899Z,37.58
2023-02-07T14:09:06.512Z,45.95
2023-02-07T14:16:27.188Z,46.47
2023-02-07T14:28:46.352Z,52.30
2023-02-07T14:34:36.483Z,46.50
2023-02-07T14:37:51.647Z,52.40
2023-02-07T14:41:01.796Z,54.25
2023-02-07T14:44:27.560Z,49.92
2023-02-07T14:47:39.324Z,49.72
2023-02-07T14:53:55.398Z,50.33
2023-02-07T14:57:56.397Z,47.83
2023-02-07T15:00:44.946Z,48.85
2023-02-07T15:03:29.150Z,48.28
2023-02-07T15:06:40.505Z,54.50
2023-02-07T15:15:39.477Z,60.10
2023-02-07T15:18:19.216Z,51.10
2023-02-07T15:22:59.068Z,74.22
2023-02-07T15:24:59.876Z,68.85
2023-02-07T15:27:48.078Z,74.72
2023-02-07T15:31:56.563Z,67.38
2023-02-07T15:34:40.016Z,68.75
2023-02-07T15:41:09.567Z,59.80
2023-02-07T15:47:25.814Z,58.88
2023-02-07T15:52:54.803Z,59.25
2023-02-07T15:55:44.381Z,55.97
2023-02-07T15:58:27.249Z,52.45
2023-02-07T16:01:02.872Z,59.42
2023-02-07T16:03:49.491Z,51.47
2023-02-07T16:06:28.010Z,64.60
2023-02-07T16:09:01.005Z,54.42
2023-02-07T16:11:30.086Z,59.80
2023-02-07T16:14:17.174Z,70.72
2023-02-07T16:16:53.465Z,63.42
2023-02-07T16:19:29.873Z,65.75
2023-02-07T16:22:13.356Z,68.28
2023-02-07T16:24:44.713Z,66.60
2023-02-07T16:27:59.552Z,69.38
2023-02-07T16:30:41.959Z,82.20
2023-02-07T16:33:16.796Z,79.18
2023-02-07T16:35:43.664Z,80.60
2023-02-07T16:38:10.383Z,72.78
2023-02-07T16:40:37.621Z,68.82
2023-02-07T16:43:07.302Z,66.47
2023-02-07T16:45:39.112Z,68.05
2023-02-07T16:48:15.778Z,73.38
2023-02-07T16:50:43.013Z,68.97
2023-02-07T16:53:09.737Z,71.25
2023-02-07T16:55:39.121Z,70.75
2023-02-07T16:58:08.448Z,69.45
2023-02-07T17:00:35.336Z,67.75
2023-02-07T17:03:02.025Z,71.35
2023-02-07T17:05:28.791Z,61.80
2023-02-07T17:07:55.491Z,59.60
2023-02-07T17:10:30.853Z,63.28
2023-02-07T17:12:59.428Z,69.78
2023-02-07T17:15:26.117Z,67.03
2023-02-07T17:17:53.855Z,58.85
2023-02-07T17:20:27.001Z,65.18
2023-02-07T17:22:55.103Z,62.75
2023-02-07T17:25:23.999Z,68.75
2023-02-07T17:27:51.435Z,67.43
2023-02-07T17:30:21.802Z,69.20
2023-02-07T17:32:49.847Z,67.05
2023-02-07T17:35:18.192Z,66.53
2023-02-07T17:37:44.981Z,72.53
2023-02-07T17:40:38.079Z,73.75
2023-02-07T17:43:06.902Z,78.03
2023-02-07T17:45:36.092Z,81.28
2023-02-07T17:48:03.954Z,86.25
2023-02-07T17:50:35.436Z,87.80
2023-02-07T17:53:03.030Z,78.30
2023-02-07T17:55:31.483Z,77.88
2023-02-07T17:57:59.034Z,83.00
2023-02-07T18:00:27.828Z,75.30
2023-02-07T18:02:54.715Z,74.40
2023-02-07T18:05:22.618Z,69.65
2023-02-07T18:07:50.834Z,71.15
2023-02-07T18:10:24.175Z,69.47
2023-02-07T18:12:51.833Z,70.45
2023-02-07T18:15:19.535Z,73.43
2023-02-07T18:17:48.172Z,67.68
2023-02-07T18:20:22.553Z,65.32
2023-02-07T18:22:50.852Z,63.88
2023-02-07T18:25:18.076Z,73.70
2023-02-07T18:27:49.167Z,72.90
2023-02-07T18:30:16.920Z,69.32
2023-02-07T18:32:43.693Z,72.82
2023-02-07T18:35:10.789Z,73.88
2023-02-07T18:37:38.053Z,73.85
2023-02-07T18:40:06.939Z,73.30
2023-02-07T18:42:33.769Z,72.60
2023-02-07T18:45:00.540Z,74.78
2023-02-07T18:47:27.334Z,74.18
2023-02-07T18:49:54.082Z,76.90
2023-02-07T18:52:20.862Z,68.40
2023-02-07T18:54:47.659Z,73.00
2023-02-07T18:57:14.379Z,67.55
2023-02-07T18:59:41.199Z,70.60
2023-02-07T19:02:08.216Z,71.95
2023-02-07T19:04:35.291Z,68.53
2023-02-07T19:07:02.207Z,75.80
2023-02-07T19:09:29.020Z,68.22
2023-02-07T19:11:57.645Z,76.47
2023-02-07T19:14:31.096Z,70.57
2023-02-07T19:16:58.888Z,67.47
2023-02-07T19:19:28.746Z,70.20
2023-02-07T19:21:56.234Z,65.60
2023-02-07T19:24:23.919Z,67.78
2023-02-07T19:26:57.265Z,73.68
2023-02-07T19:29:30.149Z,65.93
2023-02-07T19:32:08.251Z,72.20
2023-02-07T19:34:43.560Z,65.80
2023-02-07T19:37:38.645Z,61.83
2023-02-07T19:40:09.548Z,66.53
2023-02-07T19:42:42.152Z,62.20
2023-02-07T19:45:09.235Z,68.53
2023-02-07T19:47:35.946Z,68.68
2023-02-07T19:50:02.679Z,63.47
2023-02-07T19:52:29.429Z,63.50
2023-02-07T19:54:56.812Z,65.75
2023-02-07T19:57:23.637Z,66.13
2023-02-07T19:59:51.060Z,62.05
2023-02-07T20:02:17.952Z,60.95
2023-02-07T20:04:44.749Z,63.50
2023-02-07T20:07:16.120Z,66.25
2023-02-07T20:09:42.965Z,71.28
2023-02-07T20:12:09.745Z,59.95
2023-02-07T20:14:37.937Z,60.85
2023-02-07T20:17:06.060Z,56.78
2023-02-07T20:19:34.048Z,66.57
2023-02-07T20:22:22.561Z,63.28
2023-02-07T20:24:50.483Z,57.22
2023-02-07T20:32:04.227Z,61.28
2023-02-07T20:35:22.642Z,67.45
2023-02-07T20:37:59.010Z,68.45
2023-02-07T20:40:27.039Z,71.63
2023-02-07T20:44:17.212Z,62.97
2023-02-07T20:46:36.487Z,62.20
2023-02-07T20:49:07.047Z,61.80
2023-02-07T20:51:40.389Z,68.72
2023-02-07T20:54:10.363Z,61.20
2023-02-07T20:56:40.211Z,65.70
2023-02-07T20:59:15.174Z,62.60
2023-02-07T21:01:42.090Z,66.75
2023-02-07T21:04:08.807Z,64.30
2023-02-07T21:06:36.246Z,59.60
2023-02-07T21:09:12.400Z,60.53
2023-02-07T21:11:45.250Z,59.83
2023-02-07T21:14:30.151Z,56.00
2023-02-07T21:17:01.249Z,58.20
2023-02-07T21:19:28.528Z,55.97
2023-02-07T21:21:55.640Z,55.10
2023-02-07T21:24:23.213Z,59.45
2023-02-07T21:26:55.074Z,60.75
2023-02-07T21:29:22.655Z,58.55
2023-02-07T21:31:50.365Z,56.20
2023-02-07T21:34:20.975Z,58.47
2023-02-07T21:36:49.255Z,51.10
2023-02-07T21:39:16.870Z,58.33
2023-02-07T21:41:45.421Z,52.45
2023-02-07T21:44:13.362Z,55.80
2023-02-07T21:46:42.785Z,49.60
2023-02-07T21:49:14.674Z,47.60
2023-02-07T21:51:42.383Z,49.78
2023-02-07T21:54:09.269Z,51.55
2023-02-07T21:56:38.497Z,51.67
2023-02-07T21:59:08.687Z,52.45
2023-02-07T22:01:36.650Z,52.58
2023-02-07T22:04:05.754Z,50.42
2023-02-07T22:06:33.240Z,51.55
2023-02-07T22:09:02.318Z,46.97
2023-02-07T22:11:31.500Z,46.85
2023-02-07T22:13:58.709Z,47.80
2023-02-07T22:16:26.597Z,52.28
2023-02-07T22:18:55.004Z,53.22
2023-02-07T22:21:25.353Z,52.17
2023-02-07T22:23:52.898Z,45.05
2023-02-07T22:26:19.812Z,48.63
2023-02-07T22:28:47.537Z,50.17
2023-02-07T22:31:19.236Z,53.42
2023-02-07T22:33:47.294Z,49.10
2023-02-07T22:36:16.255Z,50.47
2023-02-07T22:38:43.275Z,47.40
2023-02-07T22:41:10.257Z,47.47
2023-02-07T22:43:38.643Z,45.60
2023-02-07T22:46:06.978Z,49.50
2023-02-07T22:48:34.172Z,48.22
2023-02-07T22:51:11.485Z,49.22
2023-02-07T22:53:38.219Z,48.53
2023-02-07T22:56:05.358Z,51.50
2023-02-07T22:58:32.274Z,54.10
2023-02-07T23:00:58.958Z,50.65
2023-02-07T23:03:25.702Z,47.22
2023-02-07T23:05:52.463Z,54.15
2023-02-07T23:08:19.236Z,50.67
2023-02-07T23:10:47.408Z,47.05
2023-02-07T23:13:14.408Z,53.47
2023-02-07T23:15:48.025Z,48.65
2023-02-07T23:18:15.691Z,53.40
2023-02-07T23:20:44.412Z,48.53
2023-02-07T23:23:12.623Z,59.63
2023-02-07T23:25:46.158Z,49.08
2023-02-07T23:28:13.933Z,49.83
2023-02-07T23:30:42.051Z,53.60
2023-02-07T23:33:10.182Z,55.83
2023-02-07T23:35:37.167Z,54.00
2023-02-07T23:38:04.152Z,54.10
2023-02-07T23:40:31.055Z,48.70
2023-02-07T23:42:57.813Z,49.00
2023-02-07T23:45:25.382Z,45.30
2023-02-07T23:47:52.315Z,49.83
2023-02-07T23:50:19.093Z,55.85
2023-02-07T23:52:46.079Z,47.13
2023-02-07T23:55:13.235Z,50.88
2023-02-07T23:57:40.304Z,45.05
